sensor_id;sensor_type;location;lat;lon;timestamp;temperature;humidity
9666;DHT22;4871;52.004;5.924;2023-10-08T00:00:12;18.7;74.0
9666;DHT22;4871;52.004;5.924;2023-10-08T00:01:03;18.7;74.0
9666;DHT22;4871;52.004;5.924;2023-10-08T00:02:01;18.7;74.6
9666;DHT22;4871;52.004;5.924;2023-10-08T00:03:05;18.7;74.5
9666;DHT22;4871;52.004;5.924;2023-10-08T00:04:12;18.7;74.6
9666;DHT22;4871;52.004;5.924;2023-10-08T00:05:01;18.7;74.6
9666;DHT22;4871;52.004;5.924;2023-10-08T00:06:09;18.7;73.8
9666;DHT22;4871;52.004;5.924;2023-10-08T00:07:00;18.7;73.8
9666;DHT22;4871;52.004;5.924;2023-10-08T00:08:00;18.7;73.8
9666;DHT22;4871;52.004;5.924;2023-10-08T00:09:00;18.7;74.1
9666;DHT22;4871;52.004;5.924;2023-10-08T00:10:02;18.7;74.6
9666;DHT22;4871;52.004;5.924;2023-10-08T00:11:06;18.7;73.8
9666;DHT22;4871;52.004;5.924;2023-10-08T00:12:01;18.7;73.8
9666;DHT22;4871;52.004;5.924;2023-10-08T00:13:00;18.7;74.3
9666;DHT22;4871;52.004;5.924;2023-10-08T00:14:01;18.7;73.8
9666;DHT22;4871;52.004;5.924;2023-10-08T00:15:00;18.7;73.6
9666;DHT22;4871;52.004;5.924;2023-10-08T00:16:00;18.7;73.6
9666;DHT22;4871;52.004;5.924;2023-10-08T00:17:00;18.7;74.2
9666;DHT22;4871;52.004;5.924;2023-10-08T00:18:01;18.7;73.8
9666;DHT22;4871;52.004;5.924;2023-10-08T00:19:08;18.6;74.3
9666;DHT22;4871;52.004;5.924;2023-10-08T00:20:01;18.7;74.1
9666;DHT22;4871;52.004;5.924;2023-10-08T00:21:11;18.7;73.7
9666;DHT22;4871;52.004;5.924;2023-10-08T00:22:09;18.6;74.3
9666;DHT22;4871;52.004;5.924;2023-10-08T00:23:02;18.6;74.3
9666;DHT22;4871;52.004;5.924;2023-10-08T00:24:00;18.6;73.8
9666;DHT22;4871;52.004;5.924;2023-10-08T00:25:00;18.7;74.1
9666;DHT22;4871;52.004;5.924;2023-10-08T00:26:11;18.6;74.0
9666;DHT22;4871;52.004;5.924;2023-10-08T00:27:02;18.6;74.0
9666;DHT22;4871;52.004;5.924;2023-10-08T00:28:02;18.6;74.3
9666;DHT22;4871;52.004;5.924;2023-10-08T00:29:02;18.6;73.9
9666;DHT22;4871;52.004;5.924;2023-10-08T00:30:00;18.6;73.8
9666;DHT22;4871;52.004;5.924;2023-10-08T00:31:11;18.6;73.9
9666;DHT22;4871;52.004;5.924;2023-10-08T00:32:11;18.6;74.3
9666;DHT22;4871;52.004;5.924;2023-10-08T00:33:00;18.6;74.3
9666;DHT22;4871;52.004;5.924;2023-10-08T00:34:11;18.6;73.9
9666;DHT22;4871;52.004;5.924;2023-10-08T00:35:00;18.6;73.9
9666;DHT22;4871;52.004;5.924;2023-10-08T00:36:00;18.6;73.9
9666;DHT22;4871;52.004;5.924;2023-10-08T00:37:00;18.6;73.6
9666;DHT22;4871;52.004;5.924;2023-10-08T00:38:00;18.6;74.6
9666;DHT22;4871;52.004;5.924;2023-10-08T00:39:03;18.6;73.8
9666;DHT22;4871;52.004;5.924;2023-10-08T00:40:11;18.6;74.5
9666;DHT22;4871;52.004;5.924;2023-10-08T00:41:00;18.6;74.5
9666;DHT22;4871;52.004;5.924;2023-10-08T00:42:10;18.6;74.9
9666;DHT22;4871;52.004;5.924;2023-10-08T00:43:04;18.6;74.9
9666;DHT22;4871;52.004;5.924;2023-10-08T00:44:00;18.6;74.2
9666;DHT22;4871;52.004;5.924;2023-10-08T00:45:05;18.6;73.9
9666;DHT22;4871;52.004;5.924;2023-10-08T00:46:00;18.6;74.2
9666;DHT22;4871;52.004;5.924;2023-10-08T00:47:01;18.6;73.8
9666;DHT22;4871;52.004;5.924;2023-10-08T00:48:00;18.6;73.8
9666;DHT22;4871;52.004;5.924;2023-10-08T00:49:11;18.6;74.0
9666;DHT22;4871;52.004;5.924;2023-10-08T00:50:12;18.6;73.7
9666;DHT22;4871;52.004;5.924;2023-10-08T00:51:11;18.5;74.0
9666;DHT22;4871;52.004;5.924;2023-10-08T00:52:11;18.6;73.7
9666;DHT22;4871;52.004;5.924;2023-10-08T00:53:00;18.6;73.7
9666;DHT22;4871;52.004;5.924;2023-10-08T00:54:09;18.5;74.3
9666;DHT22;4871;52.004;5.924;2023-10-08T00:55:00;18.5;74.3
9666;DHT22;4871;52.004;5.924;2023-10-08T00:56:11;18.5;74.2
9666;DHT22;4871;52.004;5.924;2023-10-08T00:57:05;18.5;74.2
9666;DHT22;4871;52.004;5.924;2023-10-08T00:58:11;18.5;73.6
9666;DHT22;4871;52.004;5.924;2023-10-08T00:59:00;18.5;73.6
9666;DHT22;4871;52.004;5.924;2023-10-08T01:00:00;18.5;74.2
9666;DHT22;4871;52.004;5.924;2023-10-08T01:01:01;18.5;73.5
9666;DHT22;4871;52.004;5.924;2023-10-08T01:02:10;18.6;73.5
9666;DHT22;4871;52.004;5.924;2023-10-08T01:03:01;18.6;73.5
9666;DHT22;4871;52.004;5.924;2023-10-08T01:04:14;18.5;73.8
9666;DHT22;4871;52.004;5.924;2023-10-08T01:05:00;18.5;73.8
9666;DHT22;4871;52.004;5.924;2023-10-08T01:06:00;18.5;74.5
9666;DHT22;4871;52.004;5.924;2023-10-08T01:07:02;18.5;73.9
9666;DHT22;4871;52.004;5.924;2023-10-08T01:08:11;18.5;73.8
9666;DHT22;4871;52.004;5.924;2023-10-08T01:09:11;18.5;73.8
9666;DHT22;4871;52.004;5.924;2023-10-08T01:10:00;18.5;73.8
9666;DHT22;4871;52.004;5.924;2023-10-08T01:11:15;18.5;73.7
9666;DHT22;4871;52.004;5.924;2023-10-08T01:12:11;18.5;73.7
9666;DHT22;4871;52.004;5.924;2023-10-08T01:13:01;18.5;73.7
9666;DHT22;4871;52.004;5.924;2023-10-08T01:14:00;18.5;74.3
9666;DHT22;4871;52.004;5.924;2023-10-08T01:15:11;18.5;73.5
9666;DHT22;4871;52.004;5.924;2023-10-08T01:16:00;18.5;73.5
9666;DHT22;4871;52.004;5.924;2023-10-08T01:17:00;18.5;73.7
9666;DHT22;4871;52.004;5.924;2023-10-08T01:18:01;18.5;73.4
9666;DHT22;4871;52.004;5.924;2023-10-08T01:19:00;18.5;73.7
9666;DHT22;4871;52.004;5.924;2023-10-08T01:20:10;18.5;73.7
9666;DHT22;4871;52.004;5.924;2023-10-08T01:21:05;18.5;73.7
9666;DHT22;4871;52.004;5.924;2023-10-08T01:22:08;18.5;73.6
9666;DHT22;4871;52.004;5.924;2023-10-08T01:23:05;18.5;73.6
9666;DHT22;4871;52.004;5.924;2023-10-08T01:24:09;18.5;73.6
9666;DHT22;4871;52.004;5.924;2023-10-08T01:25:03;18.5;73.7
9666;DHT22;4871;52.004;5.924;2023-10-08T01:26:11;18.4;73.4
9666;DHT22;4871;52.004;5.924;2023-10-08T01:27:00;18.4;73.4
9666;DHT22;4871;52.004;5.924;2023-10-08T01:28:10;18.4;73.7
9666;DHT22;4871;52.004;5.924;2023-10-08T01:29:09;18.4;73.7
9666;DHT22;4871;52.004;5.924;2023-10-08T01:30:10;18.4;73.4
9666;DHT22;4871;52.004;5.924;2023-10-08T01:31:00;18.4;73.4
9666;DHT22;4871;52.004;5.924;2023-10-08T01:32:02;18.5;73.6
9666;DHT22;4871;52.004;5.924;2023-10-08T01:33:03;18.5;73.4
9666;DHT22;4871;52.004;5.924;2023-10-08T01:34:01;18.4;73.3
9666;DHT22;4871;52.004;5.924;2023-10-08T01:35:00;18.5;73.4
9666;DHT22;4871;52.004;5.924;2023-10-08T01:36:09;18.4;73.4
9666;DHT22;4871;52.004;5.924;2023-10-08T01:37:04;18.4;73.4
9666;DHT22;4871;52.004;5.924;2023-10-08T01:38:00;18.4;73.4
9666;DHT22;4871;52.004;5.924;2023-10-08T01:39:02;18.4;73.4
9666;DHT22;4871;52.004;5.924;2023-10-08T01:40:11;18.4;74.1
9666;DHT22;4871;52.004;5.924;2023-10-08T01:41:10;18.4;73.6
9666;DHT22;4871;52.004;5.924;2023-10-08T01:42:00;18.4;73.6
9666;DHT22;4871;52.004;5.924;2023-10-08T01:43:00;18.4;73.7
9666;DHT22;4871;52.004;5.924;2023-10-08T01:44:00;18.4;73.4
9666;DHT22;4871;52.004;5.924;2023-10-08T01:45:00;18.4;73.4
9666;DHT22;4871;52.004;5.924;2023-10-08T01:46:02;18.4;73.5
9666;DHT22;4871;52.004;5.924;2023-10-08T01:47:01;18.4;73.2
9666;DHT22;4871;52.004;5.924;2023-10-08T01:48:00;18.4;73.1
9666;DHT22;4871;52.004;5.924;2023-10-08T01:49:04;18.4;73.4
9666;DHT22;4871;52.004;5.924;2023-10-08T01:50:09;18.4;73.3
9666;DHT22;4871;52.004;5.924;2023-10-08T01:51:02;18.4;73.3
9666;DHT22;4871;52.004;5.924;2023-10-08T01:52:10;18.4;73.3
9666;DHT22;4871;52.004;5.924;2023-10-08T01:53:00;18.4;73.3
9666;DHT22;4871;52.004;5.924;2023-10-08T01:54:00;18.4;73.5
9666;DHT22;4871;52.004;5.924;2023-10-08T01:55:00;18.4;73.2
9666;DHT22;4871;52.004;5.924;2023-10-08T01:56:01;18.4;73.5
9666;DHT22;4871;52.004;5.924;2023-10-08T01:57:00;18.4;73.2
9666;DHT22;4871;52.004;5.924;2023-10-08T01:58:01;18.3;73.4
9666;DHT22;4871;52.004;5.924;2023-10-08T01:59:00;18.3;73.3
9666;DHT22;4871;52.004;5.924;2023-10-08T02:00:00;18.4;73.5
9666;DHT22;4871;52.004;5.924;2023-10-08T02:01:00;18.4;73.5
9666;DHT22;4871;52.004;5.924;2023-10-08T02:02:00;18.4;73.3
9666;DHT22;4871;52.004;5.924;2023-10-08T02:03:02;18.4;73.3
9666;DHT22;4871;52.004;5.924;2023-10-08T02:04:00;18.4;73.4
9666;DHT22;4871;52.004;5.924;2023-10-08T02:05:00;18.3;73.3
9666;DHT22;4871;52.004;5.924;2023-10-08T02:06:11;18.3;73.2
9666;DHT22;4871;52.004;5.924;2023-10-08T02:07:01;18.3;73.2
9666;DHT22;4871;52.004;5.924;2023-10-08T02:08:10;18.3;73.3
9666;DHT22;4871;52.004;5.924;2023-10-08T02:09:05;18.3;73.3
9666;DHT22;4871;52.004;5.924;2023-10-08T02:10:00;18.3;73.3
9666;DHT22;4871;52.004;5.924;2023-10-08T02:11:02;18.3;73.3
9666;DHT22;4871;52.004;5.924;2023-10-08T02:12:00;18.3;73.2
9666;DHT22;4871;52.004;5.924;2023-10-08T02:13:01;18.3;73.5
9666;DHT22;4871;52.004;5.924;2023-10-08T02:14:00;18.3;73.4
9666;DHT22;4871;52.004;5.924;2023-10-08T02:15:03;18.3;73.5
9666;DHT22;4871;52.004;5.924;2023-10-08T02:16:00;18.3;73.5
9666;DHT22;4871;52.004;5.924;2023-10-08T02:17:03;18.3;73.3
9666;DHT22;4871;52.004;5.924;2023-10-08T02:18:00;18.3;73.6
9666;DHT22;4871;52.004;5.924;2023-10-08T02:19:00;18.3;73.4
9666;DHT22;4871;52.004;5.924;2023-10-08T02:20:00;18.3;73.0
9666;DHT22;4871;52.004;5.924;2023-10-08T02:21:00;18.3;73.3
9666;DHT22;4871;52.004;5.924;2023-10-08T02:22:00;18.3;73.5
9666;DHT22;4871;52.004;5.924;2023-10-08T02:23:00;18.3;73.4
9666;DHT22;4871;52.004;5.924;2023-10-08T02:24:10;18.3;73.3
9666;DHT22;4871;52.004;5.924;2023-10-08T02:25:01;18.3;73.3
9666;DHT22;4871;52.004;5.924;2023-10-08T02:26:00;18.3;73.4
9666;DHT22;4871;52.004;5.924;2023-10-08T02:27:00;18.3;73.3
9666;DHT22;4871;52.004;5.924;2023-10-08T02:28:01;18.3;73.3
9666;DHT22;4871;52.004;5.924;2023-10-08T02:29:00;18.3;73.5
9666;DHT22;4871;52.004;5.924;2023-10-08T02:30:11;18.3;73.5
9666;DHT22;4871;52.004;5.924;2023-10-08T02:31:01;18.3;73.5
9666;DHT22;4871;52.004;5.924;2023-10-08T02:32:00;18.3;73.4
9666;DHT22;4871;52.004;5.924;2023-10-08T02:33:00;18.3;73.2
9666;DHT22;4871;52.004;5.924;2023-10-08T02:34:00;18.3;73.3
9666;DHT22;4871;52.004;5.924;2023-10-08T02:35:01;18.3;73.4
9666;DHT22;4871;52.004;5.924;2023-10-08T02:36:02;18.3;73.3
9666;DHT22;4871;52.004;5.924;2023-10-08T02:37:00;18.3;73.3
9666;DHT22;4871;52.004;5.924;2023-10-08T02:38:01;18.3;73.3
9666;DHT22;4871;52.004;5.924;2023-10-08T02:39:06;18.3;73.7
9666;DHT22;4871;52.004;5.924;2023-10-08T02:40:00;18.3;73.3
9666;DHT22;4871;52.004;5.924;2023-10-08T02:41:00;18.2;73.2
9666;DHT22;4871;52.004;5.924;2023-10-08T02:42:00;18.2;73.5
9666;DHT22;4871;52.004;5.924;2023-10-08T02:43:00;18.2;73.3
9666;DHT22;4871;52.004;5.924;2023-10-08T02:44:00;18.2;73.3
9666;DHT22;4871;52.004;5.924;2023-10-08T02:45:02;18.2;73.3
9666;DHT22;4871;52.004;5.924;2023-10-08T02:46:00;18.2;73.3
9666;DHT22;4871;52.004;5.924;2023-10-08T02:47:00;18.2;73.1
9666;DHT22;4871;52.004;5.924;2023-10-08T02:48:00;18.2;73.0
9666;DHT22;4871;52.004;5.924;2023-10-08T02:49:03;18.2;73.6
9666;DHT22;4871;52.004;5.924;2023-10-08T02:50:00;18.2;73.4
9666;DHT22;4871;52.004;5.924;2023-10-08T02:51:11;18.2;73.3
9666;DHT22;4871;52.004;5.924;2023-10-08T02:52:00;18.2;73.3
9666;DHT22;4871;52.004;5.924;2023-10-08T02:53:03;18.2;73.5
9666;DHT22;4871;52.004;5.924;2023-10-08T02:54:00;18.2;73.3
9666;DHT22;4871;52.004;5.924;2023-10-08T02:55:00;18.2;73.2
9666;DHT22;4871;52.004;5.924;2023-10-08T02:56:00;18.2;73.6
9666;DHT22;4871;52.004;5.924;2023-10-08T02:57:04;18.2;73.4
9666;DHT22;4871;52.004;5.924;2023-10-08T02:58:10;18.2;73.4
9666;DHT22;4871;52.004;5.924;2023-10-08T02:59:00;18.2;73.4
9666;DHT22;4871;52.004;5.924;2023-10-08T03:00:10;18.2;73.5
9666;DHT22;4871;52.004;5.924;2023-10-08T03:01:00;18.2;73.5
9666;DHT22;4871;52.004;5.924;2023-10-08T03:02:00;18.2;73.5
9666;DHT22;4871;52.004;5.924;2023-10-08T03:03:02;18.2;73.4
9666;DHT22;4871;52.004;5.924;2023-10-08T03:04:11;18.2;73.4
9666;DHT22;4871;52.004;5.924;2023-10-08T03:05:00;18.2;73.4
9666;DHT22;4871;52.004;5.924;2023-10-08T03:06:01;18.1;73.4
9666;DHT22;4871;52.004;5.924;2023-10-08T03:07:00;18.2;73.2
9666;DHT22;4871;52.004;5.924;2023-10-08T03:08:00;18.2;73.3
9666;DHT22;4871;52.004;5.924;2023-10-08T03:09:04;18.2;73.8
9666;DHT22;4871;52.004;5.924;2023-10-08T03:10:11;18.1;73.4
9666;DHT22;4871;52.004;5.924;2023-10-08T03:11:03;18.1;73.4
9666;DHT22;4871;52.004;5.924;2023-10-08T03:12:00;18.1;73.6
9666;DHT22;4871;52.004;5.924;2023-10-08T03:13:10;18.1;73.6
9666;DHT22;4871;52.004;5.924;2023-10-08T03:14:00;18.1;73.6
9666;DHT22;4871;52.004;5.924;2023-10-08T03:15:03;18.1;73.4
9666;DHT22;4871;52.004;5.924;2023-10-08T03:16:00;18.1;73.4
9666;DHT22;4871;52.004;5.924;2023-10-08T03:17:07;18.1;73.4
9666;DHT22;4871;52.004;5.924;2023-10-08T03:18:09;18.1;73.3
9666;DHT22;4871;52.004;5.924;2023-10-08T03:19:00;18.1;73.3
9666;DHT22;4871;52.004;5.924;2023-10-08T03:20:11;18.1;73.3
9666;DHT22;4871;52.004;5.924;2023-10-08T03:21:04;18.1;73.3
9666;DHT22;4871;52.004;5.924;2023-10-08T03:22:10;18.1;73.7
9666;DHT22;4871;52.004;5.924;2023-10-08T03:23:00;18.1;73.7
9666;DHT22;4871;52.004;5.924;2023-10-08T03:24:11;18.1;73.4
9666;DHT22;4871;52.004;5.924;2023-10-08T03:25:12;18.1;73.2
9666;DHT22;4871;52.004;5.924;2023-10-08T03:26:01;18.1;73.2
9666;DHT22;4871;52.004;5.924;2023-10-08T03:27:11;18.1;73.4
9666;DHT22;4871;52.004;5.924;2023-10-08T03:28:00;18.1;73.4
9666;DHT22;4871;52.004;5.924;2023-10-08T03:29:01;18.1;73.3
9666;DHT22;4871;52.004;5.924;2023-10-08T03:30:00;18.1;73.4
9666;DHT22;4871;52.004;5.924;2023-10-08T03:31:04;18.1;73.2
9666;DHT22;4871;52.004;5.924;2023-10-08T03:32:13;18.1;73.2
9666;DHT22;4871;52.004;5.924;2023-10-08T03:33:04;18.1;73.2
9666;DHT22;4871;52.004;5.924;2023-10-08T03:34:00;18.1;73.2
9666;DHT22;4871;52.004;5.924;2023-10-08T03:35:00;18.1;73.4
9666;DHT22;4871;52.004;5.924;2023-10-08T03:36:09;18.1;73.3
9666;DHT22;4871;52.004;5.924;2023-10-08T03:37:05;18.1;73.3
9666;DHT22;4871;52.004;5.924;2023-10-08T03:38:11;18.1;73.3
9666;DHT22;4871;52.004;5.924;2023-10-08T03:39:10;18.1;73.4
9666;DHT22;4871;52.004;5.924;2023-10-08T03:40:01;18.1;73.4
9666;DHT22;4871;52.004;5.924;2023-10-08T03:41:08;18.1;73.5
9666;DHT22;4871;52.004;5.924;2023-10-08T03:42:11;18.1;73.5
9666;DHT22;4871;52.004;5.924;2023-10-08T03:43:00;18.1;73.5
9666;DHT22;4871;52.004;5.924;2023-10-08T03:44:01;18.1;73.2
9666;DHT22;4871;52.004;5.924;2023-10-08T03:45:09;18.1;73.4
9666;DHT22;4871;52.004;5.924;2023-10-08T03:46:09;18.1;73.6
9666;DHT22;4871;52.004;5.924;2023-10-08T03:47:00;18.1;73.6
9666;DHT22;4871;52.004;5.924;2023-10-08T03:48:11;18.1;73.3
9666;DHT22;4871;52.004;5.924;2023-10-08T03:49:05;18.1;73.3
9666;DHT22;4871;52.004;5.924;2023-10-08T03:50:11;18.1;73.3
9666;DHT22;4871;52.004;5.924;2023-10-08T03:51:06;18.1;73.3
9666;DHT22;4871;52.004;5.924;2023-10-08T03:52:01;18.1;73.2
9666;DHT22;4871;52.004;5.924;2023-10-08T03:53:03;18.1;73.2
9666;DHT22;4871;52.004;5.924;2023-10-08T03:54:11;18.1;73.4
9666;DHT22;4871;52.004;5.924;2023-10-08T03:55:11;18.1;73.4
9666;DHT22;4871;52.004;5.924;2023-10-08T03:56:09;18.1;73.3
9666;DHT22;4871;52.004;5.924;2023-10-08T03:57:01;18.1;73.3
9666;DHT22;4871;52.004;5.924;2023-10-08T03:58:09;18.0;73.4
9666;DHT22;4871;52.004;5.924;2023-10-08T03:59:03;18.0;73.4
9666;DHT22;4871;52.004;5.924;2023-10-08T04:00:00;18.0;73.4
9666;DHT22;4871;52.004;5.924;2023-10-08T04:01:11;18.0;73.2
9666;DHT22;4871;52.004;5.924;2023-10-08T04:02:11;18.0;73.3
9666;DHT22;4871;52.004;5.924;2023-10-08T04:03:08;18.0;73.3
9666;DHT22;4871;52.004;5.924;2023-10-08T04:04:00;18.0;73.4
9666;DHT22;4871;52.004;5.924;2023-10-08T04:05:01;18.0;73.3
9666;DHT22;4871;52.004;5.924;2023-10-08T04:06:11;18.0;73.5
9666;DHT22;4871;52.004;5.924;2023-10-08T04:07:11;18.0;73.3
9666;DHT22;4871;52.004;5.924;2023-10-08T04:08:00;18.0;73.3
9666;DHT22;4871;52.004;5.924;2023-10-08T04:09:07;18.0;73.3
9666;DHT22;4871;52.004;5.924;2023-10-08T04:10:11;18.0;73.2
9666;DHT22;4871;52.004;5.924;2023-10-08T04:11:11;18.0;73.4
9666;DHT22;4871;52.004;5.924;2023-10-08T04:12:11;18.0;73.3
9666;DHT22;4871;52.004;5.924;2023-10-08T04:13:00;18.0;73.3
9666;DHT22;4871;52.004;5.924;2023-10-08T04:14:02;18.0;73.5
9666;DHT22;4871;52.004;5.924;2023-10-08T04:15:00;18.0;73.4
9666;DHT22;4871;52.004;5.924;2023-10-08T04:16:00;18.0;73.4
9666;DHT22;4871;52.004;5.924;2023-10-08T04:17:00;18.0;73.4
9666;DHT22;4871;52.004;5.924;2023-10-08T04:18:03;18.0;73.5
9666;DHT22;4871;52.004;5.924;2023-10-08T04:19:03;18.0;73.2
9666;DHT22;4871;52.004;5.924;2023-10-08T04:20:02;18.0;73.3
9666;DHT22;4871;52.004;5.924;2023-10-08T04:21:00;18.0;73.3
9666;DHT22;4871;52.004;5.924;2023-10-08T04:22:00;18.0;73.3
9666;DHT22;4871;52.004;5.924;2023-10-08T04:23:01;18.0;73.6
9666;DHT22;4871;52.004;5.924;2023-10-08T04:24:11;18.0;74.3
9666;DHT22;4871;52.004;5.924;2023-10-08T04:25:06;18.0;74.3
9666;DHT22;4871;52.004;5.924;2023-10-08T04:26:00;18.0;74.1
9666;DHT22;4871;52.004;5.924;2023-10-08T04:27:03;18.0;74.0
9666;DHT22;4871;52.004;5.924;2023-10-08T04:28:01;18.0;73.9
9666;DHT22;4871;52.004;5.924;2023-10-08T04:29:02;18.0;73.9
9666;DHT22;4871;52.004;5.924;2023-10-08T04:30:00;18.0;74.1
9666;DHT22;4871;52.004;5.924;2023-10-08T04:31:11;18.0;73.9
9666;DHT22;4871;52.004;5.924;2023-10-08T04:32:02;18.0;73.9
9666;DHT22;4871;52.004;5.924;2023-10-08T04:33:07;18.0;73.9
9666;DHT22;4871;52.004;5.924;2023-10-08T04:34:01;18.0;74.2
9666;DHT22;4871;52.004;5.924;2023-10-08T04:35:00;18.0;74.3
9666;DHT22;4871;52.004;5.924;2023-10-08T04:36:02;17.9;74.5
9666;DHT22;4871;52.004;5.924;2023-10-08T04:37:03;17.9;74.8
9666;DHT22;4871;52.004;5.924;2023-10-08T04:38:00;17.9;74.7
9666;DHT22;4871;52.004;5.924;2023-10-08T04:39:05;17.9;74.6
9666;DHT22;4871;52.004;5.924;2023-10-08T04:40:00;17.9;74.1
9666;DHT22;4871;52.004;5.924;2023-10-08T04:41:08;17.9;74.7
9666;DHT22;4871;52.004;5.924;2023-10-08T04:42:09;17.8;74.7
9666;DHT22;4871;52.004;5.924;2023-10-08T04:43:02;17.8;74.7
9666;DHT22;4871;52.004;5.924;2023-10-08T04:44:11;17.8;74.8
9666;DHT22;4871;52.004;5.924;2023-10-08T04:45:02;17.8;74.8
9666;DHT22;4871;52.004;5.924;2023-10-08T04:46:10;17.8;74.7
9666;DHT22;4871;52.004;5.924;2023-10-08T04:47:06;17.8;74.7
9666;DHT22;4871;52.004;5.924;2023-10-08T04:48:00;17.8;74.7
9666;DHT22;4871;52.004;5.924;2023-10-08T04:49:05;17.7;74.9
9666;DHT22;4871;52.004;5.924;2023-10-08T04:50:10;17.7;75.0
9666;DHT22;4871;52.004;5.924;2023-10-08T04:51:01;17.7;75.0
9666;DHT22;4871;52.004;5.924;2023-10-08T04:52:01;17.7;74.7
9666;DHT22;4871;52.004;5.924;2023-10-08T04:53:00;17.6;74.8
9666;DHT22;4871;52.004;5.924;2023-10-08T04:54:01;17.6;74.7
9666;DHT22;4871;52.004;5.924;2023-10-08T04:55:11;17.6;74.8
9666;DHT22;4871;52.004;5.924;2023-10-08T04:56:12;17.6;74.5
9666;DHT22;4871;52.004;5.924;2023-10-08T04:57:01;17.6;74.5
9666;DHT22;4871;52.004;5.924;2023-10-08T04:58:11;17.6;75.0
9666;DHT22;4871;52.004;5.924;2023-10-08T04:59:00;17.6;75.0
9666;DHT22;4871;52.004;5.924;2023-10-08T05:00:01;17.5;74.7
9666;DHT22;4871;52.004;5.924;2023-10-08T05:01:11;17.5;74.9
9666;DHT22;4871;52.004;5.924;2023-10-08T05:02:11;17.5;74.8
9666;DHT22;4871;52.004;5.924;2023-10-08T05:03:10;17.5;74.5
9666;DHT22;4871;52.004;5.924;2023-10-08T05:04:00;17.5;74.5
9666;DHT22;4871;52.004;5.924;2023-10-08T05:05:11;17.4;75.1
9666;DHT22;4871;52.004;5.924;2023-10-08T05:06:11;17.4;75.1
9666;DHT22;4871;52.004;5.924;2023-10-08T05:07:11;17.4;74.9
9666;DHT22;4871;52.004;5.924;2023-10-08T05:08:00;17.4;74.9
9666;DHT22;4871;52.004;5.924;2023-10-08T05:09:12;17.4;74.7
9666;DHT22;4871;52.004;5.924;2023-10-08T05:10:12;17.4;74.9
9666;DHT22;4871;52.004;5.924;2023-10-08T05:11:11;17.4;74.8
9666;DHT22;4871;52.004;5.924;2023-10-08T05:12:11;17.4;74.7
9666;DHT22;4871;52.004;5.924;2023-10-08T05:13:03;17.4;74.7
9666;DHT22;4871;52.004;5.924;2023-10-08T05:14:10;17.4;74.7
9666;DHT22;4871;52.004;5.924;2023-10-08T05:15:11;17.3;75.1
9666;DHT22;4871;52.004;5.924;2023-10-08T05:16:11;17.3;74.8
9666;DHT22;4871;52.004;5.924;2023-10-08T05:17:05;17.3;74.8
9666;DHT22;4871;52.004;5.924;2023-10-08T05:18:11;17.3;74.7
9666;DHT22;4871;52.004;5.924;2023-10-08T05:19:11;17.3;74.8
9666;DHT22;4871;52.004;5.924;2023-10-08T05:20:11;17.3;74.8
9666;DHT22;4871;52.004;5.924;2023-10-08T05:21:03;17.3;74.8
9666;DHT22;4871;52.004;5.924;2023-10-08T05:22:12;17.2;74.8
9666;DHT22;4871;52.004;5.924;2023-10-08T05:23:12;17.2;75.1
9666;DHT22;4871;52.004;5.924;2023-10-08T05:24:11;17.2;74.9
9666;DHT22;4871;52.004;5.924;2023-10-08T05:25:11;17.2;74.9
9666;DHT22;4871;52.004;5.924;2023-10-08T05:26:11;17.2;74.7
9666;DHT22;4871;52.004;5.924;2023-10-08T05:27:11;17.2;75.0
9666;DHT22;4871;52.004;5.924;2023-10-08T05:28:09;17.2;75.0
9666;DHT22;4871;52.004;5.924;2023-10-08T05:29:01;17.2;75.2
9666;DHT22;4871;52.004;5.924;2023-10-08T05:30:11;17.1;75.0
9666;DHT22;4871;52.004;5.924;2023-10-08T05:31:11;17.1;75.0
9666;DHT22;4871;52.004;5.924;2023-10-08T05:32:11;17.1;74.8
9666;DHT22;4871;52.004;5.924;2023-10-08T05:33:04;17.1;74.8
9666;DHT22;4871;52.004;5.924;2023-10-08T05:34:11;17.1;75.0
9666;DHT22;4871;52.004;5.924;2023-10-08T05:35:11;17.1;74.6
9666;DHT22;4871;52.004;5.924;2023-10-08T05:36:10;17.1;74.9
9666;DHT22;4871;52.004;5.924;2023-10-08T05:37:00;17.1;74.9
9666;DHT22;4871;52.004;5.924;2023-10-08T05:38:12;17.1;74.8
9666;DHT22;4871;52.004;5.924;2023-10-08T05:39:01;17.1;74.8
9666;DHT22;4871;52.004;5.924;2023-10-08T05:40:11;17.1;74.8
9666;DHT22;4871;52.004;5.924;2023-10-08T05:41:00;17.1;74.8
9666;DHT22;4871;52.004;5.924;2023-10-08T05:42:11;17.0;75.0
9666;DHT22;4871;52.004;5.924;2023-10-08T05:43:11;17.0;75.1
9666;DHT22;4871;52.004;5.924;2023-10-08T05:44:11;17.0;75.1
9666;DHT22;4871;52.004;5.924;2023-10-08T05:45:11;17.0;75.0
9666;DHT22;4871;52.004;5.924;2023-10-08T05:46:13;17.0;75.0
9666;DHT22;4871;52.004;5.924;2023-10-08T05:47:11;17.0;75.0
9666;DHT22;4871;52.004;5.924;2023-10-08T05:48:11;17.0;74.8
9666;DHT22;4871;52.004;5.924;2023-10-08T05:49:03;17.0;74.8
9666;DHT22;4871;52.004;5.924;2023-10-08T05:50:12;17.0;74.8
9666;DHT22;4871;52.004;5.924;2023-10-08T05:51:11;17.0;75.1
9666;DHT22;4871;52.004;5.924;2023-10-08T05:52:11;17.0;75.1
9666;DHT22;4871;52.004;5.924;2023-10-08T05:53:00;17.0;75.1
9666;DHT22;4871;52.004;5.924;2023-10-08T05:54:11;16.9;75.0
9666;DHT22;4871;52.004;5.924;2023-10-08T05:55:11;16.9;75.0
9666;DHT22;4871;52.004;5.924;2023-10-08T05:56:11;16.9;74.9
9666;DHT22;4871;52.004;5.924;2023-10-08T05:57:11;16.9;74.9
9666;DHT22;4871;52.004;5.924;2023-10-08T05:58:11;16.9;75.1
9666;DHT22;4871;52.004;5.924;2023-10-08T05:59:11;16.9;74.9
9666;DHT22;4871;52.004;5.924;2023-10-08T06:00:00;16.9;74.9
9666;DHT22;4871;52.004;5.924;2023-10-08T06:01:08;16.9;74.8
9666;DHT22;4871;52.004;5.924;2023-10-08T06:02:10;16.9;75.1
9666;DHT22;4871;52.004;5.924;2023-10-08T06:03:10;16.9;75.0
9666;DHT22;4871;52.004;5.924;2023-10-08T06:04:00;16.9;75.0
9666;DHT22;4871;52.004;5.924;2023-10-08T06:05:11;16.8;75.0
9666;DHT22;4871;52.004;5.924;2023-10-08T06:06:11;16.8;74.9
9666;DHT22;4871;52.004;5.924;2023-10-08T06:07:11;16.8;75.2
9666;DHT22;4871;52.004;5.924;2023-10-08T06:08:11;16.8;75.1
9666;DHT22;4871;52.004;5.924;2023-10-08T06:09:07;16.8;75.1
9666;DHT22;4871;52.004;5.924;2023-10-08T06:10:09;16.7;75.0
9666;DHT22;4871;52.004;5.924;2023-10-08T06:11:11;16.8;75.2
9666;DHT22;4871;52.004;5.924;2023-10-08T06:12:11;16.7;75.0
9666;DHT22;4871;52.004;5.924;2023-10-08T06:13:13;16.7;75.1
9666;DHT22;4871;52.004;5.924;2023-10-08T06:14:00;16.7;75.1
9666;DHT22;4871;52.004;5.924;2023-10-08T06:15:07;16.7;75.1
9666;DHT22;4871;52.004;5.924;2023-10-08T06:16:00;16.7;75.2
9666;DHT22;4871;52.004;5.924;2023-10-08T06:17:11;16.7;75.1
9666;DHT22;4871;52.004;5.924;2023-10-08T06:18:11;16.7;75.1
9666;DHT22;4871;52.004;5.924;2023-10-08T06:19:00;16.7;75.1
9666;DHT22;4871;52.004;5.924;2023-10-08T06:20:11;16.6;75.1
9666;DHT22;4871;52.004;5.924;2023-10-08T06:21:01;16.6;75.1
9666;DHT22;4871;52.004;5.924;2023-10-08T06:22:10;16.6;74.9
9666;DHT22;4871;52.004;5.924;2023-10-08T06:23:07;16.6;74.9
9666;DHT22;4871;52.004;5.924;2023-10-08T06:24:00;16.6;74.9
9666;DHT22;4871;52.004;5.924;2023-10-08T06:25:11;16.6;75.1
9666;DHT22;4871;52.004;5.924;2023-10-08T06:26:10;16.6;74.9
9666;DHT22;4871;52.004;5.924;2023-10-08T06:27:04;16.6;74.9
9666;DHT22;4871;52.004;5.924;2023-10-08T06:28:11;16.6;75.1
9666;DHT22;4871;52.004;5.924;2023-10-08T06:29:11;16.6;75.1
9666;DHT22;4871;52.004;5.924;2023-10-08T06:30:01;16.6;75.1
9666;DHT22;4871;52.004;5.924;2023-10-08T06:31:02;16.6;75.1
9666;DHT22;4871;52.004;5.924;2023-10-08T06:32:03;16.6;75.0
9666;DHT22;4871;52.004;5.924;2023-10-08T06:33:01;16.6;75.0
9666;DHT22;4871;52.004;5.924;2023-10-08T06:34:10;16.5;75.1
9666;DHT22;4871;52.004;5.924;2023-10-08T06:35:03;16.5;75.1
9666;DHT22;4871;52.004;5.924;2023-10-08T06:36:12;16.5;74.9
9666;DHT22;4871;52.004;5.924;2023-10-08T06:37:01;16.5;74.9
9666;DHT22;4871;52.004;5.924;2023-10-08T06:38:02;16.5;75.1
9666;DHT22;4871;52.004;5.924;2023-10-08T06:39:00;16.5;75.1
9666;DHT22;4871;52.004;5.924;2023-10-08T06:40:00;16.5;75.2
9666;DHT22;4871;52.004;5.924;2023-10-08T06:41:02;16.5;75.0
9666;DHT22;4871;52.004;5.924;2023-10-08T06:42:00;16.4;75.1
9666;DHT22;4871;52.004;5.924;2023-10-08T06:43:11;16.5;75.1
9666;DHT22;4871;52.004;5.924;2023-10-08T06:44:10;16.5;75.1